Unicom:                    122.8

AWOS:                  118.275

Elevation           1458’ MSL

TPA:                   2500’ MSL

06/24:         5003’ L   75’ W

PAPI:       06/Left     24/Left

(Operate lights on unicom freq.)

Traffic Pattern: Left

Beacon: Sunset to Sunrise

Windsock: yes, lighted

Segmented Circle: No

 

Cleveland Center: 126.72/291.65

FSS: Altoona

[Source: ADDS]
METAR
KFKL 211319Z AUTO 18007KT 10SM FEW001 12/10 A2998 RMK AO2 =
KFKL 211120Z 2112/2212 20011KT P6SM SCT100 FM211900 20010G18KT P6SM VCTS BKN050CB TEMPO 2120/2123 21015G25KT 4SM TSRA BKN035CB FM212300 26009G17KT P6SM -SHRA BKN035 FM220300 26008KT P6SM BKN020 FM220800 26006KT P6SM OVC005
TAF
KFKL 211120Z 2112/2212 20011KT P6SM SCT100 FM211900 20010G18KT P6SM VCTS BKN050CB TEMPO 2120/2123 21015G25KT 4SM TSRA BKN035CB FM212300 26009G17KT P6SM -SHRA BKN035 FM220300 26008KT P6SM BKN020 FM220800 26006KT P6SM OVC005 =
[Source: ADDS]
METAR
KDUJ 211253Z AUTO 22004KT 10SM CLR 12/09 A2999 RMK AO2 SLP156 T01220089 =
KDUJ 211120Z 2112/2212 22006KT P6SM SCT100 FM211500 21010G18KT P6SM BKN100 FM212000 20010G18KT P6SM VCTS BKN050CB TEMPO 2121/2124 21015G25KT 4SM TSRA BKN035CB FM220000 26009G17KT P6SM -SHRA BKN035 FM220300 26008KT P6SM BKN020 FM220800 26006KT P6SM OVC005
TAF
KDUJ 211120Z 2112/2212 22006KT P6SM SCT100 FM211500 21010G18KT P6SM BKN100 FM212000 20010G18KT P6SM VCTS BKN050CB TEMPO 2121/2124 21015G25KT 4SM TSRA BKN035CB FM220000 26009G17KT P6SM -SHRA BKN035 FM220300 26008KT P6SM BKN020 FM220800 26006KT P6SM OVC005 =

Development areas as listed in the Pennsylvania Department of Transportation,

Bureau of Aviation Airport Properties Directory

 

Area 1 - 7 acre area for development needing access to runway 

Area 2 - 7 acre area for development not needing access to runway

There are several other Industrial Development areas available on the airport, and at other sites with easy access to the airport.

Please contact the Clarion County Airport Authority at (814) 226 - 9993, or manager@clarionairport.com

You can also contact the Clarion County Economic Development Corporation at (814) 226 - 9045.

 

Resourceful Links:

Clarion Chamber of Commerce https://www.clarionpa.com/

Clarion County Economic Development Corporation http://www.callclarionpa.com/